Time;durP1;ratioP1;P1;durP2;ratioP2;P2;SDS_P1;SDS_P2;PMS_P1;PMS_P2;Temp;Humidity;BMP_temperature;BMP_pressure;BME280_temperature;BME280_humidity;BME280_pressure;Samples;Min_cycle;Max_cycle;Signal;HPM_P1;HPM_P2
2023/01/06 00:01:33;;;;;;;1.90;1.00;;;;;;;5.00;85.06;97781.27;105103;1303;76414;-25
2023/01/06 00:04:03;;;;;;;1.50;1.00;;;;;;;5.03;84.24;97789.14;104894;1302;73061;-25
2023/01/06 00:06:33;;;;;;;1.70;1.00;;;;;;;4.82;85.05;97783.73;104902;1306;61311;-25
2023/01/06 00:09:02;;;;;;;2.80;1.20;;;;;;;4.76;86.30;97784.70;105071;1303;61317;-25
2023/01/06 00:11:32;;;;;;;2.10;1.30;;;;;;;4.50;87.40;97794.40;105084;1305;75984;-26
2023/01/06 00:14:02;;;;;;;0.70;0.60;;;;;;;4.71;87.54;97800.54;105048;1305;75050;-26
2023/01/06 00:16:32;;;;;;;1.40;0.80;;;;;;;4.99;85.59;97799.79;105311;1300;73686;-25
2023/01/06 00:19:01;;;;;;;1.90;1.00;;;;;;;4.89;85.79;97804.18;105050;1301;61554;-25
2023/01/06 00:21:30;;;;;;;1.50;0.90;;;;;;;4.60;86.51;97804.30;104875;1305;61382;-25
2023/01/06 00:24:00;;;;;;;1.60;0.90;;;;;;;4.47;87.46;97808.40;105078;1297;76950;-26
2023/01/06 00:26:30;;;;;;;1.10;0.80;;;;;;;4.81;86.63;97809.25;104983;1301;76438;-25
2023/01/06 00:29:00;;;;;;;1.70;0.90;;;;;;;5.04;85.25;97815.18;105141;1303;74824;-25
2023/01/06 00:31:29;;;;;;;2.50;1.10;;;;;;;4.85;85.52;97807.02;105151;1302;62108;-25
2023/01/06 00:42:02;;;;;;;1.30;0.90;;;;;;;4.92;85.79;97825.92;99086;1328;615212;-24
2023/01/06 00:44:34;;;;;;;2.00;1.40;;;;;;;4.70;86.38;97818.90;101375;1304;61738;-24
2023/01/06 00:47:01;;;;;;;4.50;1.40;;;;;;;4.58;87.47;97832.34;101211;1314;62084;-24
2023/01/06 00:49:29;;;;;;;4.70;1.00;;;;;;;4.56;87.21;97825.55;101386;1310;73777;-24
2023/01/06 00:51:56;;;;;;;1.40;1.10;;;;;;;4.85;86.36;97835.80;101444;1305;75799;-24
2023/01/06 00:54:23;;;;;;;1.70;1.20;;;;;;;4.79;85.84;97832.96;100472;1307;1436265;-24
2023/01/06 00:56:52;;;;;;;3.20;1.60;;;;;;;4.77;85.70;97836.00;101723;1308;61144;-23
2023/01/06 00:59:22;;;;;;;1.30;0.70;;;;;;;4.60;86.65;97843.54;101679;1308;61866;-24
2023/01/06 01:01:53;;;;;;;1.60;1.20;;;;;;;4.79;86.01;97840.86;101517;1305;73726;-23
2023/01/06 01:04:22;;;;;;;1.30;0.90;;;;;;;4.95;84.91;97852.58;101619;1310;75952;-23
2023/01/06 01:06:49;;;;;;;1.60;1.10;;;;;;;4.75;85.24;97848.54;101702;1307;74231;-23
2023/01/06 01:09:27;;;;;;;1.10;1.00;;;;;;;4.75;85.89;97860.30;101649;1308;61548;-24
2023/01/06 01:12:10;;;;;;;1.30;0.80;;;;;;;4.74;86.15;97867.39;101600;1312;61772;-24
2023/01/06 01:14:47;;;;;;;1.30;1.00;;;;;;;4.99;84.91;97865.30;101633;1308;74719;-23
2023/01/06 01:17:18;;;;;;;4.20;1.20;;;;;;;4.96;84.52;97868.48;101616;1312;75739;-24
2023/01/06 01:19:47;;;;;;;1.20;0.90;;;;;;;4.84;85.19;97877.96;101488;1304;73048;-23
2023/01/06 01:22:14;;;;;;;1.10;1.00;;;;;;;4.62;85.95;97871.72;101405;1309;61849;-24
2023/01/06 01:24:41;;;;;;;1.90;1.20;;;;;;;4.69;86.58;97879.76;101612;1307;61789;-23
2023/01/06 01:27:08;;;;;;;2.20;1.20;;;;;;;4.98;85.30;97877.58;101658;1308;73400;-24
2023/01/06 01:29:36;;;;;;;1.80;1.00;;;;;;;4.91;85.26;97877.81;101652;1305;74508;-24
2023/01/06 01:32:04;;;;;;;2.60;1.20;;;;;;;4.73;86.14;97883.29;102274;1291;74031;-24
2023/01/06 01:34:33;;;;;;;1.10;1.00;;;;;;;4.59;86.92;97881.39;102367;1293;62124;-24
2023/01/06 01:37:00;;;;;;;3.50;1.00;;;;;;;4.65;87.23;97885.80;102559;1296;61964;-24
2023/01/06 01:39:28;;;;;;;1.30;1.00;;;;;;;4.97;86.08;97890.59;102486;1299;74647;-25
2023/01/06 01:41:57;;;;;;;1.10;1.00;;;;;;;4.84;85.48;97889.99;102366;1294;76395;-25
2023/01/06 01:44:57;;;;;;;1.30;0.90;;;;;;;4.81;85.91;97895.04;102451;1297;74256;-25
2023/01/06 01:47:38;;;;;;;1.20;1.00;;;;;;;4.57;86.43;97899.59;102417;1298;63340;-25
2023/01/06 01:50:15;;;;;;;1.20;1.00;;;;;;;4.90;85.61;97897.14;102161;1301;61623;-23
2023/01/06 01:52:42;;;;;;;2.00;1.00;;;;;;;5.03;84.74;97900.29;102249;1291;74485;-25
2023/01/06 01:55:09;;;;;;;1.80;0.90;;;;;;;4.94;84.84;97901.64;102411;1290;74899;-25
2023/01/06 01:57:56;;;;;;;1.40;0.90;;;;;;;4.78;85.57;97908.36;102374;1299;74381;-25
2023/01/06 02:00:24;;;;;;;0.90;0.70;;;;;;;4.65;86.77;97916.87;102352;1299;62361;-24
2023/01/06 02:02:51;;;;;;;2.00;1.10;;;;;;;5.01;85.52;97914.19;102381;1290;61909;-24
2023/01/06 02:05:20;;;;;;;0.70;0.70;;;;;;;4.78;86.54;97918.13;102351;1299;74572;-24
2023/01/06 02:07:47;;;;;;;0.90;0.80;;;;;;;4.74;87.02;97931.56;102309;1302;74685;-25
2023/01/06 02:18:04;;;;;;;1.50;0.80;;;;;;;5.02;86.34;97938.71;99264;1328;600116;-23
2023/01/06 02:20:43;;;;;;;1.60;1.10;;;;;;;4.71;87.34;97939.83;101266;1312;62704;-24
2023/01/06 02:23:32;;;;;;;1.10;0.60;;;;;;;4.59;88.31;97957.70;101086;1311;62884;-23
2023/01/06 02:26:19;;;;;;;2.40;1.10;;;;;;;4.82;88.13;97960.36;101311;1311;74875;-23
2023/01/06 02:29:11;;;;;;;1.50;0.90;;;;;;;4.89;87.31;97956.69;101275;1312;76752;-23
2023/01/06 02:31:50;;;;;;;0.90;0.70;;;;;;;4.79;87.42;97965.52;100205;1310;1430487;-24
2023/01/06 02:34:42;;;;;;;1.20;1.00;;;;;;;4.61;88.41;97969.61;101421;1311;61858;-24
2023/01/06 02:37:30;;;;;;;0.90;0.70;;;;;;;4.71;88.53;97977.45;101269;1310;62908;-26
2023/01/06 02:40:31;;;;;;;0.70;0.60;;;;;;;4.88;86.94;97978.93;101343;1305;74481;-24
2023/01/06 02:43:35;;;;;;;1.40;0.70;;;;;;;4.73;87.60;97985.77;101223;1311;76849;-24
2023/01/06 02:46:22;;;;;;;;;;;;;;;4.46;88.66;97981.73;101215;1315;75278;-24
2023/01/06 02:49:41;;;;;;;1.10;0.80;;;;;;;4.68;88.70;97999.88;101194;1311;61608;-24
2023/01/06 02:52:24;;;;;;;0.80;0.70;;;;;;;4.60;88.10;97988.92;101176;1307;61225;-24
2023/01/06 02:55:00;;;;;;;2.70;0.70;;;;;;;4.55;88.19;98001.85;101282;1307;75770;-24
2023/01/06 02:57:48;;;;;;;1.10;0.90;;;;;;;4.40;88.88;98010.14;101312;1311;77360;-24
2023/01/06 03:00:39;;;;;;;2.00;0.70;;;;;;;4.53;88.70;98017.77;101314;1304;75111;-24
2023/01/06 03:03:12;;;;;;;0.80;0.70;;;;;;;4.67;87.41;98021.78;101385;1311;62272;-24
2023/01/06 03:05:40;;;;;;;0.70;0.50;;;;;;;4.43;88.32;98023.20;101084;1305;62775;-24
2023/01/06 03:08:09;;;;;;;1.00;0.70;;;;;;;4.31;89.17;98028.70;101260;1311;75688;-24
2023/01/06 03:10:38;;;;;;;0.80;0.60;;;;;;;4.42;89.50;98027.20;101093;1313;76770;-24
2023/01/06 03:13:06;;;;;;;1.20;0.60;;;;;;;4.55;88.89;98034.16;101380;1311;75193;-22
2023/01/06 03:15:33;;;;;;;0.50;0.50;;;;;;;4.35;89.65;98046.81;101138;1313;61589;-23
2023/01/06 03:18:01;;;;;;;1.30;0.80;;;;;;;4.39;89.49;98070.73;101233;1313;62597;-22
2023/01/06 03:20:28;;;;;;;1.10;0.40;;;;;;;3.67;88.60;98074.65;101201;1311;75710;-22
2023/01/06 03:22:55;;;;;;;0.60;0.40;;;;;;;3.54;88.11;98083.96;101137;1305;76747;-22
2023/01/06 03:25:22;;;;;;;0.70;0.40;;;;;;;3.50;88.58;98097.48;101345;1307;75257;-22
2023/01/06 03:27:49;;;;;;;0.70;0.40;;;;;;;3.40;88.36;98099.29;101300;1312;62820;-23
2023/01/06 03:30:17;;;;;;;0.50;0.40;;;;;;;3.33;89.26;98105.96;102282;1297;62880;-22
2023/01/06 03:32:57;;;;;;;1.60;0.30;;;;;;;3.39;88.87;98108.10;102308;1302;75370;-22
2023/01/06 03:35:39;;;;;;;0.40;0.40;;;;;;;3.55;88.24;98116.49;102090;1301;75719;-22
2023/01/06 03:38:09;;;;;;;2.40;1.00;;;;;;;3.24;89.19;98129.52;102048;1301;75026;-22
2023/01/06 03:40:38;;;;;;;0.90;0.40;;;;;;;2.96;89.93;98135.09;102137;1301;62969;-22
2023/01/06 03:43:15;;;;;;;2.40;0.60;;;;;;;2.97;89.33;98142.26;102352;1293;62982;-22
2023/01/06 03:46:00;;;;;;;1.80;0.80;;;;;;;2.85;88.51;98149.02;102038;1295;75725;-22
2023/01/06 03:48:46;;;;;;;2.40;1.10;;;;;;;2.65;88.68;98156.64;102056;1301;76661;-23
2023/01/06 03:51:22;;;;;;;0.70;0.60;;;;;;;2.29;88.16;98158.45;102205;1302;74535;-22
2023/01/06 03:54:08;;;;;;;1.60;0.70;;;;;;;2.09;88.18;98170.48;102299;1302;63670;-23
2023/01/06 03:56:58;;;;;;;1.40;0.70;;;;;;;2.05;88.03;98183.41;102308;1302;61769;-23
2023/01/06 03:59:26;;;;;;;1.40;1.10;;;;;;;1.70;88.91;98192.30;102161;1302;75565;-22
2023/01/06 04:01:53;;;;;;;1.60;1.00;;;;;;;1.52;90.18;98197.98;102013;1302;76793;-23
2023/01/06 04:04:20;;;;;;;1.60;0.70;;;;;;;1.38;90.69;98208.16;102115;1301;74411;-23
2023/01/06 04:06:47;;;;;;;2.40;1.00;;;;;;;1.66;89.04;98215.13;101972;1300;62753;-23
2023/01/06 04:09:15;;;;;;;0.70;0.70;;;;;;;1.44;88.47;98225.59;102001;1297;62794;-23
2023/01/06 04:14:29;;;;;;;1.40;1.10;;;;;;;0.95;90.45;98248.52;102298;1297;75916;-23
2023/01/06 04:16:57;;;;;;;1.60;1.20;;;;;;;1.01;90.40;98250.38;102312;1299;74311;-23
2023/01/06 04:19:24;;;;;;;3.50;2.40;;;;;;;1.09;89.89;98258.55;102308;1299;62622;-23
2023/01/06 04:21:51;;;;;;;2.10;1.40;;;;;;;0.90;90.78;98273.87;102315;1298;61762;-23
2023/01/06 04:24:18;;;;;;;1.30;1.20;;;;;;;0.90;90.50;98283.28;102313;1299;75421;-23
2023/01/06 04:26:45;;;;;;;0.90;0.90;;;;;;;0.85;90.68;98289.89;102143;1303;76505;-23
2023/01/06 04:29:13;;;;;;;2.20;1.10;;;;;;;0.95;90.04;98297.89;102372;1300;74911;-23
2023/01/06 04:31:40;;;;;;;1.40;1.10;;;;;;;0.90;89.46;98306.85;102183;1302;62906;-23
2023/01/06 04:34:07;;;;;;;1.10;0.90;;;;;;;0.78;89.53;98318.44;102169;1301;62930;-24
2023/01/06 04:36:34;;;;;;;1.60;1.20;;;;;;;0.66;89.96;98323.52;102079;1302;75625;-23
2023/01/06 04:39:01;;;;;;;2.20;1.30;;;;;;;0.76;90.06;98335.46;102064;1294;77276;-23
2023/01/06 04:41:30;;;;;;;1.50;1.30;;;;;;;0.90;88.88;98341.40;101984;1301;75207;-23
2023/01/06 04:43:57;;;;;;;2.30;1.80;;;;;;;0.85;88.41;98348.69;102274;1297;61838;-23
2023/01/06 04:46:24;;;;;;;1.10;1.00;;;;;;;0.50;88.28;98355.94;102244;1300;62051;-24
2023/01/06 04:48:51;;;;;;;1.60;1.30;;;;;;;0.23;89.06;98359.36;102237;1300;74249;-23
2023/01/06 04:51:18;;;;;;;1.70;1.20;;;;;;;0.39;88.78;98372.05;102006;1301;76811;-24
2023/01/06 04:53:46;;;;;;;1.60;1.20;;;;;;;0.56;88.38;98385.02;102141;1302;75280;-24
2023/01/06 04:56:13;;;;;;;1.60;1.20;;;;;;;0.47;87.80;98388.54;102045;1302;62227;-23
2023/01/06 04:58:40;;;;;;;1.50;1.40;;;;;;;0.26;87.66;98394.54;102346;1291;61154;-23
2023/01/06 05:01:09;;;;;;;1.30;1.20;;;;;;;0.22;88.32;98402.45;102263;1291;74619;-24
2023/01/06 05:03:37;;;;;;;1.20;1.10;;;;;;;0.46;86.88;98410.29;102247;1301;76862;-24
2023/01/06 05:06:09;;;;;;;2.80;1.80;;;;;;;0.59;86.47;98422.77;102294;1302;74145;-23
2023/01/06 05:08:37;;;;;;;1.70;1.50;;;;;;;0.47;86.31;98427.80;102151;1299;61100;-23
2023/01/06 05:11:17;;;;;;;1.50;1.10;;;;;;;0.17;87.05;98438.16;102052;1300;61060;-23
2023/01/06 05:13:45;;;;;;;1.50;1.40;;;;;;;0.06;87.56;98442.94;102182;1302;74720;-24
2023/01/06 05:16:26;;;;;;;1.10;1.00;;;;;;;0.21;86.74;98451.82;102338;1302;75697;-24
2023/01/06 05:18:54;;;;;;;1.60;1.30;;;;;;;0.41;86.06;98459.89;102328;1297;73230;-24
2023/01/06 05:21:23;;;;;;;1.50;1.30;;;;;;;0.21;86.15;98465.09;102344;1297;62078;-24
2023/01/06 05:23:50;;;;;;;2.30;1.60;;;;;;;0.04;86.46;98468.13;102253;1302;61654;-24
2023/01/06 05:26:20;;;;;;;1.30;1.10;;;;;;;-0.07;86.96;98472.10;102336;1302;75692;-24
2023/01/06 05:28:47;;;;;;;1.10;0.90;;;;;;;0.09;86.87;98478.66;102295;1294;76467;-24
2023/01/06 05:31:14;;;;;;;1.50;1.40;;;;;;;0.29;86.07;98487.10;102307;1298;75215;-24
2023/01/06 05:33:41;;;;;;;1.50;1.40;;;;;;;0.14;85.77;98489.67;102274;1305;61171;-24
2023/01/06 05:36:10;;;;;;;1.20;1.10;;;;;;;0.19;86.10;98499.36;102140;1299;62448;-24
2023/01/06 05:38:37;;;;;;;2.60;1.40;;;;;;;0.08;86.93;98515.05;102214;1300;74572;-24
2023/01/06 05:41:04;;;;;;;1.50;1.30;;;;;;;0.14;87.81;98522.95;102007;1302;76607;-24
2023/01/06 05:43:32;;;;;;;2.10;1.50;;;;;;;0.15;87.93;98543.59;102207;1294;75142;-24
2023/01/06 05:46:04;;;;;;;3.30;2.10;;;;;;;-0.04;89.18;98550.29;102284;1298;62046;-23
2023/01/06 05:48:31;;;;;;;2.00;1.70;;;;;;;-0.20;89.91;98554.73;102097;1301;62878;-23
2023/01/06 05:51:24;;;;;;;2.60;1.90;;;;;;;-0.37;90.94;98560.61;102182;1299;75296;-24
2023/01/06 05:53:51;;;;;;;1.80;1.60;;;;;;;-0.17;90.06;98568.08;102181;1298;76870;-24
2023/01/06 05:56:19;;;;;;;2.30;2.00;;;;;;;-0.10;89.16;98576.27;102334;1298;73926;-24
2023/01/06 05:58:48;;;;;;;2.30;1.70;;;;;;;-0.05;88.48;98578.98;102175;1295;61158;-24
2023/01/06 06:01:18;;;;;;;2.70;2.20;;;;;;;-0.11;88.27;98584.70;102255;1301;61590;-24
2023/01/06 06:03:46;;;;;;;1.80;1.40;;;;;;;-0.25;88.89;98589.23;102185;1299;75388;-24
2023/01/06 06:06:13;;;;;;;1.50;1.30;;;;;;;0.05;86.79;98587.58;102172;1296;76566;-24
2023/01/06 06:08:40;;;;;;;2.40;1.60;;;;;;;0.04;86.07;98596.65;102085;1303;74188;-24
2023/01/06 06:11:10;;;;;;;1.60;1.50;;;;;;;-0.18;85.65;98600.71;102268;1293;61127;-24
2023/01/06 06:13:37;;;;;;;2.10;1.70;;;;;;;-0.29;86.60;98614.02;102174;1291;61440;-24
2023/01/06 06:16:06;;;;;;;2.10;1.60;;;;;;;-0.26;86.98;98624.27;102130;1302;74470;-25
2023/01/06 06:18:35;;;;;;;1.90;1.70;;;;;;;0.07;85.96;98629.98;102093;1302;75562;-25
2023/01/06 06:21:02;;;;;;;2.40;1.80;;;;;;;0.30;84.68;98635.98;102090;1300;74151;-25
2023/01/06 06:23:30;;;;;;;1.60;1.40;;;;;;;0.08;84.62;98639.45;102198;1285;61113;-25
2023/01/06 06:25:57;;;;;;;1.90;1.70;;;;;;;0.01;84.46;98646.80;102294;1298;62091;-25
2023/01/06 06:28:24;;;;;;;1.80;1.50;;;;;;;-0.28;84.84;98655.58;102052;1294;75555;-26
2023/01/06 06:30:51;;;;;;;1.80;1.70;;;;;;;-0.34;85.27;98666.42;102212;1302;74797;-25
2023/01/06 06:33:21;;;;;;;5.10;3.50;;;;;;;-0.03;83.96;98671.71;102003;1294;74948;-25
2023/01/06 06:35:58;;;;;;;2.90;2.00;;;;;;;0.01;83.13;98678.23;101981;1301;62897;-25
2023/01/06 06:38:26;;;;;;;2.80;2.20;;;;;;;-0.14;83.34;98690.84;102232;1298;61841;-25
2023/01/06 06:40:53;;;;;;;1.70;1.30;;;;;;;-0.46;84.38;98701.88;102303;1299;75078;-25
2023/01/06 06:43:20;;;;;;;1.60;1.30;;;;;;;-0.30;84.58;98711.46;102316;1302;76691;-25
2023/01/06 06:45:47;;;;;;;1.80;1.70;;;;;;;-0.19;85.09;98728.05;102214;1300;75168;-25
2023/01/06 06:48:15;;;;;;;4.90;1.70;;;;;;;0.01;84.59;98729.57;102080;1302;61250;-25
2023/01/06 06:50:42;;;;;;;1.90;1.50;;;;;;;0.11;83.79;98734.76;102262;1297;61477;-25
2023/01/06 06:53:09;;;;;;;4.80;2.60;;;;;;;-0.34;85.36;98737.86;102056;1294;76191;-26
2023/01/06 06:55:36;;;;;;;2.40;1.70;;;;;;;-0.51;86.36;98746.73;102326;1301;74660;-26
2023/01/06 06:58:03;;;;;;;2.80;1.90;;;;;;;-0.51;87.00;98760.77;102227;1301;75273;-26
2023/01/06 07:00:30;;;;;;;5.90;2.60;;;;;;;-0.24;86.89;98756.24;102114;1295;62258;-26
2023/01/06 07:02:57;;;;;;;5.00;2.50;;;;;;;-0.25;84.89;98764.80;102291;1299;62485;-25
2023/01/06 07:05:24;;;;;;;2.90;2.00;;;;;;;-0.46;84.75;98771.96;102095;1302;76388;-25
2023/01/06 07:07:51;;;;;;;4.00;2.60;;;;;;;-0.63;85.14;98779.29;102148;1300;76467;-25
2023/01/06 07:10:18;;;;;;;3.80;2.40;;;;;;;-0.74;85.84;98777.52;102293;1302;74867;-26
2023/01/06 07:12:45;;;;;;;7.30;4.60;;;;;;;-0.68;86.76;98794.84;102214;1300;61998;-27
2023/01/06 07:15:12;;;;;;;9.20;4.50;;;;;;;-0.69;86.28;98794.87;102326;1291;61542;-26
2023/01/06 07:17:40;;;;;;;5.30;2.80;;;;;;;-0.60;85.88;98794.54;102331;1302;74156;-27
2023/01/06 07:20:08;;;;;;;4.40;2.90;;;;;;;-0.83;86.26;98803.06;102339;1298;75556;-26
2023/01/06 07:22:39;;;;;;;4.50;2.70;;;;;;;-0.89;87.20;98805.20;102271;1299;75118;-27
2023/01/06 07:25:07;;;;;;;4.50;2.70;;;;;;;-0.57;85.34;98795.59;102160;1288;61055;-28
2023/01/06 07:27:34;;;;;;;4.20;2.60;;;;;;;-0.48;83.75;98803.09;102352;1302;62528;-28
2023/01/06 07:30:02;;;;;;;3.10;2.10;;;;;;;-0.34;83.15;98807.64;102226;1302;76331;-25
2023/01/06 07:32:29;;;;;;;2.90;2.00;;;;;;;-0.73;83.08;98801.66;102092;1295;76635;-27
2023/01/06 07:34:56;;;;;;;2.40;2.10;;;;;;;-0.98;84.72;98812.52;102306;1298;75010;-27
2023/01/06 07:37:23;;;;;;;2.70;1.90;;;;;;;-0.91;84.92;98816.49;102339;1297;62569;-27
2023/01/06 07:39:50;;;;;;;3.70;2.50;;;;;;;-0.64;84.01;98826.73;102211;1302;61504;-27
2023/01/06 07:42:17;;;;;;;3.50;2.20;;;;;;;-0.66;83.21;98830.58;102297;1297;76270;-27
2023/01/06 07:44:44;;;;;;;4.40;2.70;;;;;;;-0.77;83.29;98846.67;102269;1297;75868;-27
2023/01/06 07:47:13;;;;;;;2.70;2.20;;;;;;;-0.99;84.65;98850.39;102276;1292;75048;-27
2023/01/06 07:49:40;;;;;;;3.70;1.80;;;;;;;-1.13;84.64;98850.55;102053;1302;63645;-27
2023/01/06 07:52:07;;;;;;;4.20;3.20;;;;;;;-0.74;84.04;98869.56;102299;1299;62773;-25
2023/01/06 07:54:34;;;;;;;7.10;3.10;;;;;;;-0.91;84.52;98875.47;102306;1298;74037;-24
2023/01/06 07:57:01;;;;;;;3.60;2.50;;;;;;;-0.95;85.21;98872.73;102105;1301;75464;-24
2023/01/06 07:59:28;;;;;;;3.20;2.40;;;;;;;-1.15;85.85;98877.91;102274;1292;74146;-24
2023/01/06 08:01:55;;;;;;;2.90;2.00;;;;;;;-1.05;85.74;98879.05;102317;1299;62869;-25
2023/01/06 08:04:22;;;;;;;2.10;1.70;;;;;;;-0.88;84.50;98883.23;102175;1298;61717;-26
2023/01/06 08:06:49;;;;;;;2.40;2.00;;;;;;;-0.73;83.86;98888.30;102210;1301;75031;-25
2023/01/06 08:09:17;;;;;;;2.90;2.30;;;;;;;-0.58;83.88;98901.71;102185;1295;76655;-25
2023/01/06 08:11:44;;;;;;;2.70;2.00;;;;;;;-0.84;83.84;98905.76;102317;1301;74440;-25
2023/01/06 08:14:12;;;;;;;2.90;2.30;;;;;;;-0.93;84.76;98903.18;102293;1301;63836;-24
2023/01/06 08:16:39;;;;;;;3.60;3.20;;;;;;;-0.86;84.51;98905.11;102311;1279;61687;-26
2023/01/06 08:19:06;;;;;;;3.40;2.60;;;;;;;-0.87;84.25;98916.92;102349;1292;75331;-26
2023/01/06 08:21:33;;;;;;;3.10;2.40;;;;;;;-0.93;84.01;98917.66;102335;1299;74653;-26
2023/01/06 08:24:00;;;;;;;2.40;1.90;;;;;;;-1.00;83.84;98928.48;102093;1303;75142;-26
2023/01/06 08:26:27;;;;;;;3.20;2.60;;;;;;;-1.13;84.01;98943.92;102330;1299;61146;-26
2023/01/06 08:28:54;;;;;;;5.50;2.90;;;;;;;-1.28;84.46;98958.24;102289;1299;62530;-26
2023/01/06 08:31:21;;;;;;;4.30;3.10;;;;;;;-0.93;83.04;98958.39;102301;1297;76369;-26
2023/01/06 08:33:49;;;;;;;4.10;2.70;;;;;;;-1.02;82.01;98946.27;102317;1303;76592;-26
2023/01/06 08:36:17;;;;;;;5.20;2.80;;;;;;;-1.29;83.22;98967.30;102314;1297;75181;-26
2023/01/06 08:38:44;;;;;;;2.20;1.90;;;;;;;-1.25;82.76;98967.16;102346;1302;61206;-26
2023/01/06 08:41:11;;;;;;;4.70;2.90;;;;;;;-1.39;82.65;98971.88;102309;1291;61760;-26
2023/01/06 08:43:39;;;;;;;1.80;1.70;;;;;;;-1.38;82.25;98979.88;102236;1298;76552;-26
2023/01/06 08:46:07;;;;;;;2.10;1.80;;;;;;;-1.05;80.86;98978.40;102401;1305;76720;-26
2023/01/06 08:48:34;;;;;;;3.10;2.30;;;;;;;-1.08;81.21;98993.52;102005;1295;73686;-26
2023/01/06 08:51:06;;;;;;;4.40;3.80;;;;;;;-1.34;81.79;98992.33;102070;1302;61199;-26
2023/01/06 08:53:33;;;;;;;4.80;2.90;;;;;;;-1.61;82.92;98998.17;102171;1294;61776;-26
2023/01/06 08:56:00;;;;;;;4.20;2.90;;;;;;;-1.73;83.70;99013.83;102156;1291;75344;-26
2023/01/06 08:58:27;;;;;;;3.00;2.50;;;;;;;-1.50;82.77;99004.10;102329;1300;75693;-27
2023/01/06 09:00:55;;;;;;;3.20;2.60;;;;;;;-1.09;80.79;99020.81;102292;1302;75549;-26
2023/01/06 09:03:22;;;;;;;3.00;2.50;;;;;;;-1.25;80.35;99035.98;102213;1303;62458;-26
2023/01/06 09:05:56;;;;;;;4.60;3.90;;;;;;;-1.48;81.08;99024.98;102266;1301;63117;-26
2023/01/06 09:08:23;;;;;;;3.50;2.70;;;;;;;-1.63;81.83;99021.55;102169;1302;75390;-26
2023/01/06 09:10:50;;;;;;;3.60;2.50;;;;;;;-1.60;81.75;99020.27;102312;1299;75572;-26
2023/01/06 09:13:18;;;;;;;5.00;3.10;;;;;;;-1.36;81.13;99025.63;102317;1301;74621;-26
2023/01/06 09:15:47;;;;;;;5.50;2.80;;;;;;;-1.35;80.35;99039.04;102215;1301;62156;-26
2023/01/06 09:18:15;;;;;;;3.70;3.10;;;;;;;-1.46;81.22;99047.73;102309;1291;61455;-26
2023/01/06 09:20:41;;;;;;;3.50;2.80;;;;;;;-1.61;80.95;99036.28;102128;1302;74147;-26
2023/01/06 09:23:08;;;;;;;3.70;2.80;;;;;;;-1.61;82.15;99035.28;102306;1299;74625;-26
2023/01/06 09:25:35;;;;;;;3.00;2.30;;;;;;;-1.61;81.98;99042.27;102286;1304;74867;-27
2023/01/06 09:28:02;;;;;;;4.20;3.70;;;;;;;-1.42;81.50;99046.59;102336;1291;61181;-26
2023/01/06 09:30:29;;;;;;;6.80;5.40;;;;;;;-1.29;81.65;99047.88;102201;1301;62878;-26
2023/01/06 09:32:56;;;;;;;6.30;3.90;;;;;;;-1.47;81.55;99049.45;102361;1299;75127;-26
2023/01/06 09:35:23;;;;;;;5.50;3.50;;;;;;;-1.59;81.87;99049.50;102298;1302;76465;-26
2023/01/06 09:37:50;;;;;;;4.30;3.90;;;;;;;-1.77;82.31;99057.03;102293;1298;73857;-26
2023/01/06 09:40:20;;;;;;;4.20;3.00;;;;;;;-1.74;82.30;99058.81;102178;1300;62476;-26
2023/01/06 09:42:57;;;;;;;3.60;2.60;;;;;;;-1.32;81.27;99060.92;102166;1301;62549;-26
2023/01/06 09:45:37;;;;;;;4.40;2.60;;;;;;;-1.27;80.75;99055.66;102292;1302;75532;-26
2023/01/06 09:48:05;;;;;;;2.80;2.00;;;;;;;-1.27;80.46;99060.92;102203;1302;74709;-26
2023/01/06 09:50:59;;;;;;;4.30;3.30;;;;;;;-1.32;80.00;99077.44;102207;1302;73881;-27
2023/01/06 09:53:38;;;;;;;4.30;2.90;;;;;;;-1.45;81.25;99078.17;102260;1295;62113;-26
2023/01/06 09:56:09;;;;;;;3.60;2.70;;;;;;;-1.53;81.09;99071.11;102323;1298;61183;-26
2023/01/06 09:58:38;;;;;;;3.10;2.10;;;;;;;-1.37;79.92;99075.88;101957;1302;76417;-26
2023/01/06 10:01:07;;;;;;;3.30;2.30;;;;;;;-1.17;78.67;99067.23;101941;1304;75348;-27
2023/01/06 10:03:34;;;;;;;2.00;1.70;;;;;;;-1.37;77.55;99057.33;102108;1302;73957;-26
2023/01/06 10:06:20;;;;;;;2.50;1.70;;;;;;;-1.41;77.59;99066.83;102212;1292;61088;-26
2023/01/06 10:08:56;;;;;;;2.90;2.00;;;;;;;-1.67;78.76;99069.32;102165;1301;61395;-26
2023/01/06 10:11:42;;;;;;;2.30;1.80;;;;;;;-1.75;77.81;99056.64;102045;1294;76362;-26
2023/01/06 10:14:19;;;;;;;2.50;2.10;;;;;;;-1.74;77.94;99064.60;102263;1297;75744;-26
2023/01/06 10:17:01;;;;;;;2.20;1.40;;;;;;;-1.63;76.81;99074.66;102225;1298;74582;-27
2023/01/06 10:19:50;;;;;;;1.40;1.20;;;;;;;-1.30;76.39;99087.27;102246;1297;62234;-28
2023/01/06 10:22:23;;;;;;;3.10;2.20;;;;;;;-1.41;76.62;99089.65;102012;1300;61518;-27
2023/01/06 10:24:50;;;;;;;;;;;;;;;-1.78;77.03;99087.19;102068;1301;75241;-27
2023/01/06 10:27:26;;;;;;;4.60;2.70;;;;;;;-1.90;78.34;99096.58;102193;1292;75822;-27
2023/01/06 10:29:57;;;;;;;2.30;1.90;;;;;;;-2.10;78.41;99097.48;102124;1302;75209;-27
2023/01/06 10:32:24;;;;;;;1.60;1.50;;;;;;;-1.72;77.76;99101.48;102216;1294;62097;-27
2023/01/06 10:34:51;;;;;;;2.80;2.10;;;;;;;-1.61;76.49;99105.24;102240;1302;62996;-27
2023/01/06 10:37:31;;;;;;;2.20;1.70;;;;;;;-1.60;75.81;99098.06;102082;1294;76438;-26
2023/01/06 10:40:10;;;;;;;2.60;1.80;;;;;;;-1.88;76.07;99109.95;102196;1302;76681;-26
2023/01/06 10:42:56;;;;;;;1.80;1.60;;;;;;;-1.98;76.79;99110.08;102358;1297;74048;-26
2023/01/06 10:45:39;;;;;;;3.10;1.80;;;;;;;-2.10;77.77;99112.13;102042;1301;62354;-26
2023/01/06 10:48:10;;;;;;;1.80;1.50;;;;;;;-2.19;77.42;99124.12;102074;1302;61981;-26
2023/01/06 10:50:37;;;;;;;5.20;2.80;;;;;;;-1.90;76.75;99126.70;102053;1301;75104;-25
2023/01/06 10:53:04;;;;;;;4.40;2.90;;;;;;;-2.00;76.79;99122.40;102334;1300;75528;-26
2023/01/06 10:55:46;;;;;;;2.50;2.30;;;;;;;-2.11;77.52;99121.49;102083;1294;74063;-26
2023/01/06 10:58:34;;;;;;;4.30;1.90;;;;;;;-2.32;78.03;99127.20;102306;1300;61164;-26
2023/01/06 11:01:15;;;;;;;2.00;1.60;;;;;;;-2.32;78.44;99128.56;102162;1299;63179;-26
2023/01/06 11:03:44;;;;;;;5.80;3.50;;;;;;;-2.46;78.78;99125.52;102331;1291;75429;-26
2023/01/06 11:06:23;;;;;;;5.20;3.70;;;;;;;-2.15;78.51;99125.04;102318;1299;75792;-25
2023/01/06 11:08:49;;;;;;;4.10;3.10;;;;;;;-1.87;77.69;99129.85;102361;1291;74982;-26
2023/01/06 11:11:17;;;;;;;5.60;3.40;;;;;;;-2.15;78.06;99131.83;102279;1300;61113;-26
2023/01/06 11:14:02;;;;;;;4.40;3.00;;;;;;;-2.31;78.60;99131.59;102140;1302;61832;-26
2023/01/06 11:16:34;;;;;;;5.80;3.50;;;;;;;-2.46;79.70;99134.20;102212;1299;76160;-26
2023/01/06 11:19:03;;;;;;;6.90;4.10;;;;;;;-2.42;80.42;99135.45;102233;1299;76671;-26
2023/01/06 11:21:41;;;;;;;7.50;2.40;;;;;;;-2.26;79.47;99136.90;102191;1302;75105;-25
2023/01/06 11:24:18;;;;;;;4.80;2.60;;;;;;;-2.04;78.44;99131.86;102210;1300;61170;-26
2023/01/06 11:26:56;;;;;;;3.80;2.60;;;;;;;-2.05;78.36;99137.33;102166;1301;61774;-26
2023/01/06 11:29:26;;;;;;;5.00;3.30;;;;;;;-2.12;78.59;99140.42;102117;1302;76138;-26
2023/01/06 11:31:53;;;;;;;4.10;3.30;;;;;;;-2.24;79.46;99143.83;102354;1299;76704;-26
2023/01/06 11:34:25;;;;;;;5.10;3.50;;;;;;;-2.36;80.48;99145.83;102344;1299;74368;-25
2023/01/06 11:36:52;;;;;;;3.20;2.30;;;;;;;-2.29;80.63;99143.61;102090;1294;63719;-26
2023/01/06 11:39:22;;;;;;;2.50;1.80;;;;;;;-1.91;78.91;99143.05;102147;1294;61832;-26
2023/01/06 11:41:50;;;;;;;2.50;2.30;;;;;;;-1.65;77.31;99148.95;102068;1300;76103;-26
2023/01/06 11:44:31;;;;;;;1.60;1.50;;;;;;;-1.82;76.83;99154.20;102285;1298;75773;-26
2023/01/06 11:47:13;;;;;;;3.70;2.30;;;;;;;-1.92;77.26;99157.73;102186;1301;75273;-25
2023/01/06 11:49:50;;;;;;;2.40;1.80;;;;;;;-2.12;77.47;99164.75;102295;1301;61164;-26
2023/01/06 11:52:31;;;;;;;3.10;2.40;;;;;;;-2.17;78.07;99167.60;102213;1300;61521;-26
2023/01/06 11:55:17;;;;;;;4.40;1.90;;;;;;;-2.31;77.97;99176.83;102297;1294;75123;-25
2023/01/06 11:57:54;;;;;;;2.30;1.40;;;;;;;-1.86;76.40;99168.96;102195;1301;76485;-26
2023/01/06 12:00:45;;;;;;;7.00;2.50;;;;;;;-1.87;75.79;99169.15;102059;1294;75053;-26
2023/01/06 12:03:33;;;;;;;2.50;1.40;;;;;;;-2.06;75.73;99175.13;102262;1302;61964;-26
2023/01/06 12:06:31;;;;;;;2.00;1.70;;;;;;;-2.14;75.95;99176.36;102044;1299;61633;-26
2023/01/06 12:09:01;;;;;;;2.80;2.20;;;;;;;-2.21;77.10;99176.89;102277;1298;76323;-26